TimePST,TemperatureF,Dew PointF,Humidity,Sea Level PressureIn,VisibilityMPH,Wind Direction,Wind SpeedMPH,Gust SpeedMPH,PrecipitationIn,Events,Conditions,WindDirDegrees,DateUTC
12:56 AM,28.9,21.9,75,30.21,10.0,Calm,Calm,-,N/A,,Clear,0,2014-01-08 08:56:00
1:56 AM,27.0,21.0,78,30.21,8.0,Calm,Calm,-,N/A,,Clear,0,2014-01-08 09:56:00
2:56 AM,26.1,21.0,81,30.23,9.0,Calm,Calm,-,N/A,,Unknown,0,2014-01-08 10:56:00
3:56 AM,27.0,21.9,81,30.24,9.0,Calm,Calm,-,N/A,,Clear,0,2014-01-08 11:56:00
4:56 AM,27.0,21.9,81,30.25,10.0,Calm,Calm,-,N/A,,Clear,0,2014-01-08 12:56:00
5:56 AM,26.1,21.0,81,30.24,10.0,Calm,Calm,-,N/A,,Clear,0,2014-01-08 13:56:00
6:56 AM,27.0,21.9,81,30.25,10.0,Calm,Calm,-,N/A,,Clear,0,2014-01-08 14:56:00
7:56 AM,28.0,24.1,85,30.26,6.0,Calm,Calm,-,N/A,,Clear,0,2014-01-08 15:56:00
8:56 AM,33.1,27.0,78,30.27,8.0,Calm,Calm,-,N/A,,Mostly Cloudy,0,2014-01-08 16:56:00
9:56 AM,37.9,28.0,68,30.27,10.0,Calm,Calm,-,N/A,,Overcast,0,2014-01-08 17:56:00
10:56 AM,43.0,28.0,56,30.25,10.0,Calm,Calm,-,N/A,,Overcast,0,2014-01-08 18:56:00
11:56 AM,46.9,30.0,52,30.20,10.0,Variable,3.5,-,N/A,,Overcast,0,2014-01-08 19:56:00
12:56 PM,48.9,32.0,52,30.16,10.0,Variable,6.9,-,N/A,,Clear,0,2014-01-08 20:56:00
1:56 PM,48.9,30.9,50,30.15,10.0,Variable,4.6,-,N/A,,Clear,0,2014-01-08 21:56:00
2:56 PM,48.9,32.0,52,30.17,10.0,Calm,Calm,-,N/A,,Mostly Cloudy,0,2014-01-08 22:56:00
3:56 PM,46.0,32.0,58,30.15,10.0,Variable,3.5,-,N/A,,Clear,0,2014-01-08 23:56:00
4:56 PM,44.1,32.0,63,30.18,10.0,ESE,3.5,-,N/A,,Clear,110,2014-01-09 00:56:00
5:56 PM,43.0,30.9,62,30.18,10.0,East,4.6,-,N/A,,Clear,100,2014-01-09 01:56:00
6:56 PM,43.0,30.9,62,30.19,10.0,East,6.9,-,N/A,,Scattered Clouds,80,2014-01-09 02:56:00
7:56 PM,43.0,30.9,62,30.18,10.0,East,3.5,-,N/A,,Overcast,90,2014-01-09 03:56:00
8:56 PM,41.0,30.0,65,30.17,10.0,East,4.6,-,N/A,,Overcast,100,2014-01-09 04:56:00
9:56 PM,39.0,30.0,70,30.17,10.0,Calm,Calm,-,N/A,,Mostly Cloudy,0,2014-01-09 05:56:00
10:56 PM,37.9,30.0,73,30.17,10.0,Calm,Calm,-,N/A,,Overcast,0,2014-01-09 06:56:00
11:56 PM,37.0,30.0,76,30.15,8.0,Calm,Calm,-,N/A,,Overcast,0,2014-01-09 07:56:00